createdAt,value
2023-03-15T00:01:56.444Z,1.27
2023-03-15T00:04:26.484Z,1.70
2023-03-15T00:06:56.591Z,1.40
2023-03-15T00:09:26.408Z,1.70
2023-03-15T00:11:56.947Z,1.17
2023-03-15T00:14:29.475Z,1.50
2023-03-15T00:16:59.305Z,1.60
2023-03-15T00:19:29.140Z,1.40
2023-03-15T00:21:59.018Z,1.57
2023-03-15T00:24:28.891Z,1.60
2023-03-15T00:26:58.680Z,1.40
2023-03-15T00:29:34.406Z,1.33
2023-03-15T00:32:07.296Z,1.40
2023-03-15T00:34:37.171Z,1.50
2023-03-15T00:37:06.967Z,1.53
2023-03-15T00:39:37.975Z,1.80
2023-03-15T00:42:08.167Z,1.87
2023-03-15T00:44:40.761Z,1.70
2023-03-15T00:47:10.925Z,1.97
2023-03-15T00:49:41.044Z,1.63
2023-03-15T00:52:12.697Z,1.80
2023-03-15T00:54:42.495Z,1.53
2023-03-15T00:57:12.455Z,1.60
2023-03-15T00:59:45.101Z,1.53
2023-03-15T01:02:15.479Z,1.37
2023-03-15T01:04:46.827Z,1.20
2023-03-15T01:07:16.758Z,1.60
2023-03-15T01:09:48.558Z,1.60
2023-03-15T01:12:18.586Z,1.60
2023-03-15T01:14:51.026Z,1.50
2023-03-15T01:17:20.832Z,1.90
2023-03-15T01:19:51.689Z,1.70
2023-03-15T01:22:21.585Z,2.13
2023-03-15T01:24:51.397Z,1.70
2023-03-15T01:27:21.277Z,1.60
2023-03-15T01:29:56.222Z,1.63
2023-03-15T01:32:26.153Z,2.60
2023-03-15T01:34:56.038Z,1.30
2023-03-15T01:37:26.725Z,1.60
2023-03-15T01:39:56.592Z,1.17
2023-03-15T01:42:26.442Z,1.93
2023-03-15T01:45:03.968Z,1.63
2023-03-15T01:47:33.814Z,1.23
2023-03-15T01:50:09.086Z,1.50
2023-03-15T01:52:42.267Z,2.63
2023-03-15T01:55:16.345Z,1.40
2023-03-15T01:57:49.647Z,2.87
2023-03-15T02:00:23.544Z,1.97
2023-03-15T02:02:58.562Z,1.30
2023-03-15T02:05:32.900Z,2.03
2023-03-15T02:08:03.714Z,1.93
2023-03-15T02:10:38.330Z,1.90
2023-03-15T02:13:10.284Z,2.90
2023-03-15T02:15:46.993Z,2.00
2023-03-15T02:18:18.076Z,2.10
2023-03-15T02:20:57.038Z,2.00
2023-03-15T02:23:30.345Z,2.13
2023-03-15T02:26:10.132Z,1.63
2023-03-15T02:28:44.075Z,1.60
2023-03-15T02:31:14.057Z,2.00
2023-03-15T02:33:47.812Z,1.40
2023-03-15T02:36:21.695Z,1.77
2023-03-15T02:38:52.673Z,1.40
2023-03-15T02:41:29.540Z,1.77
2023-03-15T02:44:09.766Z,1.33
2023-03-15T02:46:40.775Z,1.77
2023-03-15T02:49:11.379Z,2.00
2023-03-15T02:51:41.228Z,1.70
2023-03-15T02:54:11.034Z,2.33
2023-03-15T02:56:41.209Z,1.63
2023-03-15T02:59:14.154Z,2.43
2023-03-15T03:01:46.070Z,1.60
2023-03-15T03:04:15.869Z,1.70
2023-03-15T03:06:47.521Z,2.03
2023-03-15T03:09:17.278Z,1.53
2023-03-15T03:11:47.219Z,1.13
2023-03-15T03:14:19.677Z,1.40
2023-03-15T03:16:50.241Z,0.80
2023-03-15T03:19:25.749Z,1.30
2023-03-15T03:21:56.894Z,1.30
2023-03-15T03:24:27.339Z,1.20
2023-03-15T03:26:58.713Z,1.13
2023-03-15T03:29:31.142Z,0.90
2023-03-15T03:32:01.046Z,0.93
2023-03-15T03:34:31.673Z,1.27
2023-03-15T03:37:01.541Z,1.03
2023-03-15T03:39:31.434Z,1.00
2023-03-15T03:42:01.207Z,0.80
2023-03-15T03:44:33.732Z,1.07
2023-03-15T03:47:03.589Z,1.10
2023-03-15T03:49:33.401Z,0.93
2023-03-15T03:52:03.494Z,0.90
2023-03-15T03:54:33.539Z,1.40
2023-03-15T03:57:06.425Z,1.23
2023-03-15T03:59:38.805Z,1.20
2023-03-15T04:02:08.862Z,1.20
2023-03-15T04:04:41.418Z,1.17
2023-03-15T04:07:12.934Z,1.40
2023-03-15T04:09:42.694Z,0.90
2023-03-15T04:12:13.136Z,1.17
2023-03-15T04:14:45.718Z,1.33
2023-03-15T04:17:15.519Z,1.23
2023-03-15T04:19:47.166Z,1.17
2023-03-15T04:22:17.352Z,1.30
2023-03-15T04:24:50.794Z,0.90
2023-03-15T04:27:22.873Z,1.30
2023-03-15T04:29:56.205Z,1.00
2023-03-15T04:32:26.038Z,1.13
2023-03-15T04:34:56.094Z,1.20
2023-03-15T04:37:28.907Z,1.23
2023-03-15T04:39:58.810Z,1.30
2023-03-15T04:42:29.016Z,1.83
2023-03-15T04:45:04.599Z,1.73
2023-03-15T04:47:34.468Z,1.50
2023-03-15T04:50:04.354Z,1.30
2023-03-15T04:52:34.187Z,1.60
2023-03-15T04:55:04.312Z,1.40
2023-03-15T04:57:37.171Z,1.30
2023-03-15T05:00:13.133Z,2.03
2023-03-15T05:02:43.240Z,2.17
2023-03-15T05:05:14.748Z,1.90
2023-03-15T05:07:44.554Z,1.63
2023-03-15T05:10:16.180Z,1.20
2023-03-15T05:12:45.994Z,1.57
2023-03-15T05:15:18.665Z,1.40
2023-03-15T05:17:49.786Z,1.23
2023-03-15T05:20:20.068Z,1.43
2023-03-15T05:22:49.932Z,1.20
2023-03-15T05:25:22.825Z,1.33
2023-03-15T05:27:53.046Z,1.50
2023-03-15T05:30:25.543Z,1.70
2023-03-15T05:32:55.462Z,1.57
2023-03-15T05:35:26.986Z,1.73
2023-03-15T05:37:58.643Z,1.30
2023-03-15T05:40:30.069Z,1.60
2023-03-15T05:42:59.992Z,2.07
2023-03-15T05:45:34.795Z,1.63
2023-03-15T05:48:04.644Z,1.27
2023-03-15T05:50:34.985Z,1.77
2023-03-15T05:53:05.018Z,1.63
2023-03-15T05:55:36.278Z,1.70
2023-03-15T05:58:06.084Z,1.40
2023-03-15T06:00:38.435Z,1.63
2023-03-15T06:03:09.803Z,1.60
2023-03-15T06:05:39.754Z,1.40
2023-03-15T06:08:09.558Z,1.40
2023-03-15T06:10:39.449Z,1.70
2023-03-15T06:13:09.496Z,1.77
2023-03-15T06:15:41.862Z,1.60
2023-03-15T06:18:11.672Z,1.70
2023-03-15T06:20:41.496Z,1.63
2023-03-15T06:23:11.303Z,1.90
2023-03-15T06:25:41.053Z,1.97
2023-03-15T06:28:10.887Z,2.33
2023-03-15T06:30:43.887Z,2.13
2023-03-15T06:33:13.841Z,2.40
2023-03-15T06:35:47.320Z,2.17
2023-03-15T06:38:17.231Z,2.53
2023-03-15T06:40:47.220Z,2.97
2023-03-15T06:43:19.667Z,3.90
2023-03-15T06:45:53.698Z,3.30
2023-03-15T06:48:23.511Z,2.40
2023-03-15T06:50:53.355Z,2.33
2023-03-15T06:53:23.469Z,2.00
2023-03-15T06:55:53.519Z,1.97
2023-03-15T06:58:23.301Z,1.87
2023-03-15T07:00:57.253Z,1.80
2023-03-15T07:03:27.203Z,2.07
2023-03-15T07:05:57.020Z,2.10
2023-03-15T07:08:28.103Z,2.07
2023-03-15T07:10:57.924Z,2.50
2023-03-15T07:13:27.732Z,2.10
2023-03-15T07:16:00.273Z,2.30
2023-03-15T07:18:54.421Z,2.50
2023-03-15T07:21:42.112Z,2.40
2023-03-15T07:24:13.676Z,2.37
2023-03-15T07:26:43.788Z,2.20
2023-03-15T07:29:14.914Z,3.00
2023-03-15T07:31:47.592Z,2.50
2023-03-15T07:34:17.535Z,2.23
2023-03-15T07:36:47.340Z,1.90
2023-03-15T07:39:17.700Z,3.33
2023-03-15T07:41:47.759Z,2.30
2023-03-15T07:44:18.035Z,2.00
2023-03-15T07:46:50.552Z,1.90
2023-03-15T07:49:21.265Z,2.80
2023-03-15T07:51:51.669Z,2.30
2023-03-15T07:54:24.251Z,2.20
2023-03-15T07:56:54.036Z,2.30
2023-03-15T07:59:23.850Z,2.30
2023-03-15T08:01:56.232Z,2.03
2023-03-15T08:04:26.021Z,2.80
2023-03-15T08:06:55.791Z,2.20
2023-03-15T08:09:25.605Z,2.10
2023-03-15T08:11:55.374Z,2.23
2023-03-15T08:14:25.157Z,2.00
2023-03-15T08:16:57.655Z,2.10
2023-03-15T08:19:27.681Z,2.03
2023-03-15T08:21:57.582Z,1.73
2023-03-15T08:24:30.207Z,2.43
2023-03-15T08:29:53.412Z,4.33
2023-03-15T08:32:26.048Z,2.50
2023-03-15T08:34:56.055Z,1.97
2023-03-15T08:37:25.930Z,2.03
2023-03-15T08:40:01.086Z,2.17
2023-03-15T08:42:31.184Z,2.50
2023-03-15T08:45:02.300Z,2.37
2023-03-15T08:47:35.488Z,2.50
2023-03-15T08:50:05.921Z,2.37
2023-03-15T08:52:36.493Z,2.40
2023-03-15T08:55:06.818Z,1.90
2023-03-15T08:57:36.682Z,2.40
2023-03-15T09:00:10.603Z,2.33
2023-03-15T09:02:43.069Z,1.90
2023-03-15T09:05:13.796Z,2.50
2023-03-15T09:07:44.266Z,2.60
2023-03-15T09:10:16.170Z,2.17
2023-03-15T09:12:46.466Z,2.27
2023-03-15T09:15:17.157Z,2.73
2023-03-15T09:17:51.690Z,2.13
2023-03-15T09:20:24.240Z,2.20
2023-03-15T09:22:55.266Z,2.10
2023-03-15T09:25:25.846Z,2.27
2023-03-15T09:27:56.395Z,1.97
2023-03-15T09:30:26.828Z,2.27
2023-03-15T09:32:59.262Z,2.13
2023-03-15T09:35:29.279Z,2.43
2023-03-15T09:37:59.127Z,2.40
2023-03-15T09:40:31.172Z,2.40
2023-03-15T09:43:16.256Z,2.23
2023-03-15T09:46:05.919Z,2.30
2023-03-15T09:48:43.773Z,2.73
2023-03-15T09:51:19.224Z,2.47
2023-03-15T09:53:55.438Z,2.20
2023-03-15T09:56:30.627Z,2.43
2023-03-15T09:59:03.155Z,2.40
2023-03-15T10:01:35.711Z,2.33
2023-03-15T10:04:13.204Z,2.63
2023-03-15T10:06:46.269Z,2.27
2023-03-15T10:09:26.890Z,2.50
2023-03-15T10:12:05.891Z,2.20
2023-03-15T10:14:59.806Z,2.63
2023-03-15T10:17:40.823Z,1.93
2023-03-15T10:20:19.036Z,2.27
2023-03-15T10:22:55.777Z,2.53
2023-03-15T10:25:28.722Z,2.30
2023-03-15T10:28:02.519Z,2.33
2023-03-15T10:30:34.456Z,2.70
2023-03-15T10:33:06.303Z,2.20
2023-03-15T10:35:38.808Z,2.30
2023-03-15T10:38:18.270Z,2.83
2023-03-15T10:40:54.222Z,2.73
2023-03-15T10:43:26.220Z,2.37
2023-03-15T10:46:05.143Z,2.40
2023-03-15T10:48:37.719Z,2.83
2023-03-15T10:51:21.873Z,2.60
2023-03-15T10:53:56.763Z,2.07
2023-03-15T10:56:29.165Z,2.70
2023-03-15T10:59:12.425Z,2.30
2023-03-15T11:01:44.036Z,2.40
2023-03-15T11:04:22.245Z,2.30
2023-03-15T11:07:04.356Z,2.23
2023-03-15T11:09:43.613Z,2.43
2023-03-15T11:12:19.593Z,2.07
2023-03-15T11:14:52.639Z,2.57
2023-03-15T11:17:25.892Z,2.10
2023-03-15T11:20:01.002Z,2.47
2023-03-15T11:22:35.436Z,2.17
2023-03-15T11:25:05.871Z,2.00
2023-03-15T11:27:35.774Z,2.30
2023-03-15T11:30:05.952Z,2.23
2023-03-15T11:32:36.168Z,2.47
2023-03-15T11:35:09.466Z,2.30
2023-03-15T11:37:49.032Z,2.53
2023-03-15T11:40:23.934Z,2.07
2023-03-15T11:42:59.076Z,1.73
2023-03-15T11:45:37.265Z,2.17
2023-03-15T11:48:14.414Z,2.10
2023-03-15T11:50:44.380Z,2.20
2023-03-15T11:53:20.070Z,2.27
2023-03-15T11:55:53.721Z,1.70
2023-03-15T11:58:32.483Z,1.93
2023-03-15T12:01:05.023Z,1.83
2023-03-15T12:03:46.952Z,2.20
2023-03-15T12:06:39.128Z,1.90
2023-03-15T12:09:38.863Z,2.00
2023-03-15T12:12:38.468Z,1.93
2023-03-15T12:15:18.562Z,1.77
2023-03-15T12:17:52.706Z,1.80
2023-03-15T12:20:30.236Z,1.80
2023-03-15T12:23:21.132Z,1.80
2023-03-15T12:25:56.544Z,1.77
2023-03-15T12:28:33.352Z,1.90
2023-03-15T12:31:06.137Z,1.60
2023-03-15T12:33:46.420Z,1.70
2023-03-15T12:36:22.944Z,2.23
2023-03-15T12:39:05.092Z,1.60
2023-03-15T12:41:41.017Z,1.53
2023-03-15T12:44:40.821Z,1.53
2023-03-15T12:47:11.774Z,1.67
2023-03-15T12:49:44.541Z,1.60
2023-03-15T12:52:37.194Z,1.77
2023-03-15T13:06:17.412Z,1.60
2023-03-15T13:08:53.616Z,1.70
2023-03-15T13:11:32.276Z,1.67
2023-03-15T13:14:26.103Z,1.20
2023-03-15T13:17:12.445Z,1.77
2023-03-15T13:19:57.520Z,1.90
2023-03-15T13:22:56.634Z,1.80
2023-03-15T13:49:43.404Z,1.60
2023-03-15T13:52:15.534Z,2.20
2023-03-15T13:54:50.613Z,1.50
2023-03-15T13:57:22.842Z,2.43
2023-03-15T13:59:55.769Z,1.80
2023-03-15T14:02:29.875Z,2.20
2023-03-15T14:05:09.877Z,1.90
2023-03-15T14:07:41.813Z,1.97
2023-03-15T14:10:33.992Z,1.90
2023-03-15T14:13:24.171Z,1.93
2023-03-15T14:15:59.895Z,2.20
2023-03-15T14:18:34.579Z,2.07
2023-03-15T14:21:10.931Z,2.23
2023-03-15T14:23:43.876Z,1.70
2023-03-15T14:26:21.738Z,2.00
2023-03-15T14:29:03.200Z,1.57
2023-03-15T14:31:35.722Z,1.97
2023-03-15T14:34:13.570Z,1.50
2023-03-15T14:36:47.964Z,1.50
2023-03-15T14:39:23.025Z,1.53
2023-03-15T14:41:52.795Z,1.10
2023-03-15T14:44:28.988Z,1.67
2023-03-15T14:46:59.240Z,1.40
2023-03-15T14:49:30.819Z,1.87
2023-03-15T14:52:06.419Z,1.37
2023-03-15T14:54:36.980Z,1.83
2023-03-15T14:57:06.932Z,1.47
2023-03-15T14:59:36.672Z,1.60
2023-03-15T15:02:08.057Z,1.33
2023-03-15T15:04:39.651Z,2.10
2023-03-15T15:07:13.739Z,1.20
2023-03-15T15:09:49.482Z,1.93
2023-03-15T15:12:19.556Z,1.60
2023-03-15T15:14:49.349Z,1.43
2023-03-15T15:17:19.859Z,1.67
2023-03-15T15:19:49.600Z,2.30
2023-03-15T15:22:22.702Z,2.07
2023-03-15T15:24:52.519Z,2.17
2023-03-15T15:27:22.366Z,1.73
2023-03-15T15:29:52.459Z,1.43
2023-03-15T15:32:22.237Z,1.57
2023-03-15T15:34:54.986Z,1.60
2023-03-15T15:37:27.839Z,1.80
2023-03-15T15:39:57.971Z,1.50
2023-03-15T15:42:27.769Z,1.50
2023-03-15T15:44:57.529Z,1.50
2023-03-15T15:47:27.297Z,1.90
2023-03-15T15:49:57.020Z,1.83
2023-03-15T15:52:29.454Z,2.00
2023-03-15T15:55:00.649Z,2.00
2023-03-15T15:57:31.330Z,1.60
2023-03-15T16:00:01.501Z,1.53
2023-03-15T16:02:31.365Z,1.97
2023-03-15T16:05:01.164Z,2.13
2023-03-15T16:07:33.584Z,1.50
2023-03-15T16:10:03.730Z,1.50
2023-03-15T16:12:33.682Z,1.77
2023-03-15T16:15:03.865Z,1.67
2023-03-15T16:17:33.617Z,1.70
2023-03-15T16:20:09.350Z,1.50
2023-03-15T16:22:45.616Z,1.53
2023-03-15T16:25:23.754Z,1.57
2023-03-15T16:27:53.746Z,1.90
2023-03-15T16:30:25.608Z,2.07
2023-03-15T16:32:56.061Z,1.80
2023-03-15T16:35:28.345Z,1.40
2023-03-15T16:38:02.278Z,1.50
2023-03-15T16:40:38.132Z,1.80
2023-03-15T16:43:09.302Z,1.60
2023-03-15T16:45:39.052Z,1.97
2023-03-15T16:48:09.119Z,2.17
2023-03-15T16:50:39.719Z,1.70
2023-03-15T16:53:15.701Z,1.80
2023-03-15T16:55:46.288Z,1.70
2023-03-15T16:58:22.685Z,1.77
2023-03-15T17:00:52.424Z,1.30
2023-03-15T17:03:22.167Z,1.63
2023-03-15T17:05:52.694Z,1.70
2023-03-15T17:08:28.040Z,2.17
2023-03-15T17:10:57.813Z,2.30
2023-03-15T17:13:32.227Z,2.07
2023-03-15T17:16:02.137Z,2.00
2023-03-15T17:18:37.110Z,2.40
2023-03-15T17:21:09.248Z,1.67
2023-03-15T17:23:42.483Z,2.03
2023-03-15T17:26:15.440Z,1.90
2023-03-15T17:28:48.317Z,2.07
2023-03-15T17:31:24.860Z,1.73
2023-03-15T17:33:55.375Z,1.77
2023-03-15T17:36:26.574Z,2.20
2023-03-15T17:38:59.860Z,2.10
2023-03-15T17:41:32.220Z,2.00
2023-03-15T17:44:02.509Z,10.63
2023-03-15T17:46:33.403Z,2.20
2023-03-15T17:49:05.055Z,1.83
2023-03-15T17:51:37.677Z,1.97
2023-03-15T17:54:17.006Z,2.10
2023-03-15T17:56:47.283Z,2.10
2023-03-15T17:59:17.880Z,2.10
2023-03-15T18:01:49.005Z,2.20
2023-03-15T18:04:19.098Z,2.70
2023-03-15T18:06:48.858Z,2.90
2023-03-15T18:09:22.379Z,3.87
2023-03-15T18:11:53.203Z,3.97
2023-03-15T18:14:22.999Z,3.70
2023-03-15T18:16:53.566Z,3.17
2023-03-15T18:19:23.717Z,3.07
2023-03-15T18:21:53.488Z,3.80
2023-03-15T18:24:25.944Z,3.20
2023-03-15T18:26:55.690Z,3.20
2023-03-15T18:29:27.839Z,3.10
2023-03-15T18:31:57.716Z,2.50
2023-03-15T18:34:27.522Z,3.00
2023-03-15T18:36:57.315Z,2.33
2023-03-15T18:39:32.826Z,2.50
2023-03-15T18:42:02.615Z,2.20
2023-03-15T18:44:32.361Z,2.50
2023-03-15T18:47:02.233Z,2.47
2023-03-15T18:49:32.751Z,2.27
2023-03-15T18:52:02.495Z,1.87
2023-03-15T18:54:34.988Z,2.83
2023-03-15T18:57:04.805Z,2.50
2023-03-15T18:59:34.549Z,3.07
2023-03-15T19:02:05.063Z,4.07
2023-03-15T19:04:34.872Z,6.83
2023-03-15T19:07:04.623Z,4.73
2023-03-15T19:09:36.991Z,4.50
2023-03-15T19:12:06.950Z,4.03
2023-03-15T19:14:36.716Z,3.73
2023-03-15T19:17:06.560Z,3.20
2023-03-15T19:19:36.355Z,2.87
2023-03-15T19:22:06.104Z,2.73
2023-03-15T19:24:39.110Z,2.90
2023-03-15T19:27:08.878Z,3.07
2023-03-15T19:29:38.845Z,2.60
2023-03-15T19:32:09.304Z,2.57
2023-03-15T19:34:39.077Z,2.70
2023-03-15T19:37:08.996Z,2.93
2023-03-15T19:39:42.558Z,2.37
2023-03-15T19:42:12.342Z,2.30
2023-03-15T19:44:43.725Z,2.00
2023-03-15T19:47:13.489Z,2.07
2023-03-15T19:49:43.329Z,2.20
2023-03-15T19:52:15.841Z,1.93
2023-03-15T19:54:49.045Z,1.80
2023-03-15T19:57:18.857Z,2.67
2023-03-15T19:59:49.825Z,2.47
2023-03-15T20:02:19.887Z,1.87
2023-03-15T20:04:49.761Z,2.30
2023-03-15T20:07:20.102Z,2.10
2023-03-15T20:09:53.918Z,2.37
2023-03-15T20:12:23.695Z,2.57
2023-03-15T20:14:53.430Z,3.83
2023-03-15T20:17:28.288Z,3.40
2023-03-15T20:20:10.440Z,3.80
2023-03-15T20:22:41.503Z,4.00
2023-03-15T20:25:16.161Z,3.60
2023-03-15T20:27:46.297Z,3.17
2023-03-15T20:30:18.227Z,3.80
2023-03-15T20:32:48.172Z,3.03
2023-03-15T20:35:17.961Z,3.00
2023-03-15T20:37:48.131Z,3.43
2023-03-15T20:40:21.262Z,3.37
2023-03-15T20:42:55.117Z,3.23
2023-03-15T20:45:24.891Z,3.03
2023-03-15T20:47:54.624Z,3.60
2023-03-15T20:50:24.682Z,3.97
2023-03-15T20:52:54.625Z,3.00
2023-03-15T20:55:27.004Z,3.70
2023-03-15T20:57:56.776Z,3.87
2023-03-15T21:00:27.302Z,3.97
2023-03-15T21:02:57.142Z,4.07
2023-03-15T21:05:28.031Z,3.97
2023-03-15T21:07:57.864Z,3.70
2023-03-15T21:10:30.278Z,3.63
2023-03-15T21:13:00.034Z,3.07
2023-03-15T21:15:29.901Z,3.43
2023-03-15T21:17:59.657Z,3.30
2023-03-15T21:20:29.514Z,3.30
2023-03-15T21:22:59.300Z,3.43
2023-03-15T21:25:36.235Z,2.93
2023-03-15T21:28:06.250Z,3.00
2023-03-15T21:30:36.700Z,3.17
2023-03-15T21:33:06.655Z,3.33
2023-03-15T21:35:37.267Z,3.00
2023-03-15T21:38:07.058Z,3.17
2023-03-15T21:40:39.491Z,3.17
2023-03-15T21:43:09.620Z,3.30
2023-03-15T21:45:41.811Z,3.00
2023-03-15T21:48:11.886Z,3.27
2023-03-15T21:50:41.674Z,2.90
2023-03-15T21:53:11.461Z,3.10
2023-03-15T21:55:46.319Z,3.20
2023-03-15T21:58:16.355Z,3.10
2023-03-15T22:00:46.187Z,2.97
2023-03-15T22:03:16.872Z,2.97
2023-03-15T22:05:48.436Z,3.43
2023-03-15T22:08:18.279Z,2.67
2023-03-15T22:10:53.519Z,3.07
2023-03-15T22:16:22.200Z,2.70
2023-03-15T22:18:56.117Z,2.87
2023-03-15T22:21:25.971Z,2.90
2023-03-15T22:23:55.710Z,2.90
2023-03-15T22:26:28.228Z,3.17
2023-03-15T22:28:57.986Z,2.63
2023-03-15T22:31:31.419Z,3.40
2023-03-15T22:34:03.039Z,3.17
2023-03-15T22:36:35.364Z,3.03
2023-03-15T22:39:06.250Z,3.20
2023-03-15T22:41:39.020Z,2.83
2023-03-15T22:44:08.996Z,2.57
2023-03-15T22:46:38.887Z,2.63
2023-03-15T22:49:08.640Z,2.97
2023-03-15T22:51:40.484Z,2.40
2023-03-15T22:54:10.300Z,2.67
2023-03-15T22:56:43.476Z,2.53
2023-03-15T22:59:13.237Z,2.50
2023-03-15T23:01:43.019Z,2.60
2023-03-15T23:04:12.909Z,2.20
2023-03-15T23:06:42.729Z,2.17
2023-03-15T23:09:12.487Z,2.73
2023-03-15T23:11:45.626Z,2.50
2023-03-15T23:14:15.387Z,2.10
2023-03-15T23:16:45.459Z,2.10
2023-03-15T23:19:16.143Z,2.17
2023-03-15T23:21:45.903Z,2.13
2023-03-15T23:24:18.851Z,2.63
2023-03-15T23:26:56.546Z,2.67
2023-03-15T23:29:26.334Z,2.40
2023-03-15T23:31:56.170Z,2.30
2023-03-15T23:34:27.647Z,2.87
2023-03-15T23:42:59.363Z,2.20
2023-03-15T23:45:30.945Z,2.47
2023-03-15T23:48:02.472Z,2.20
2023-03-15T23:50:32.490Z,2.40
2023-03-15T23:53:02.260Z,2.13
2023-03-15T23:55:35.673Z,2.23
2023-03-15T23:58:08.647Z,2.00
